sensor_id;sensor_type;location;lat;lon;timestamp;P1;durP1;ratioP1;P2;durP2;ratioP2
77571;SDS011;67214;47.454;18.966;2023-10-13T00:00:36;24.15;;;12.53;;
77571;SDS011;67214;47.454;18.966;2023-10-13T00:03:05;19.82;;;12.18;;
77571;SDS011;67214;47.454;18.966;2023-10-13T00:05:35;18.32;;;12.18;;
77571;SDS011;67214;47.454;18.966;2023-10-13T00:08:03;17.62;;;12.18;;
77571;SDS011;67214;47.454;18.966;2023-10-13T00:10:31;21.60;;;12.75;;
77571;SDS011;67214;47.454;18.966;2023-10-13T00:13:02;24.80;;;12.25;;
77571;SDS011;67214;47.454;18.966;2023-10-13T00:15:44;19.37;;;12.50;;
77571;SDS011;67214;47.454;18.966;2023-10-13T00:18:14;20.68;;;12.60;;
77571;SDS011;67214;47.454;18.966;2023-10-13T00:20:43;16.57;;;13.15;;
77571;SDS011;67214;47.454;18.966;2023-10-13T00:23:17;25.52;;;12.53;;
77571;SDS011;67214;47.454;18.966;2023-10-13T00:25:50;19.87;;;12.10;;
77571;SDS011;67214;47.454;18.966;2023-10-13T00:28:27;19.05;;;11.63;;
77571;SDS011;67214;47.454;18.966;2023-10-13T00:31:13;21.05;;;12.40;;
77571;SDS011;67214;47.454;18.966;2023-10-13T00:33:40;19.57;;;11.57;;
77571;SDS011;67214;47.454;18.966;2023-10-13T00:36:08;16.20;;;10.93;;
77571;SDS011;67214;47.454;18.966;2023-10-13T00:38:37;19.90;;;11.43;;
77571;SDS011;67214;47.454;18.966;2023-10-13T00:41:05;16.62;;;11.18;;
77571;SDS011;67214;47.454;18.966;2023-10-13T00:43:46;18.95;;;11.22;;
77571;SDS011;67214;47.454;18.966;2023-10-13T00:46:16;17.37;;;11.20;;
77571;SDS011;67214;47.454;18.966;2023-10-13T00:48:45;15.72;;;12.00;;
77571;SDS011;67214;47.454;18.966;2023-10-13T00:51:14;16.82;;;12.68;;
77571;SDS011;67214;47.454;18.966;2023-10-13T00:53:43;21.85;;;12.25;;
77571;SDS011;67214;47.454;18.966;2023-10-13T00:56:16;14.95;;;11.15;;
77571;SDS011;67214;47.454;18.966;2023-10-13T00:58:45;19.05;;;11.55;;
77571;SDS011;67214;47.454;18.966;2023-10-13T01:01:15;17.35;;;11.85;;
77571;SDS011;67214;47.454;18.966;2023-10-13T01:03:47;15.75;;;11.88;;
77571;SDS011;67214;47.454;18.966;2023-10-13T01:06:18;16.77;;;12.13;;
77571;SDS011;67214;47.454;18.966;2023-10-13T01:09:02;17.17;;;11.53;;
77571;SDS011;67214;47.454;18.966;2023-10-13T01:11:18;21.40;;;13.00;;
77571;SDS011;67214;47.454;18.966;2023-10-13T01:13:47;16.15;;;11.48;;
77571;SDS011;67214;47.454;18.966;2023-10-13T01:16:17;19.62;;;11.95;;
77571;SDS011;67214;47.454;18.966;2023-10-13T01:18:47;25.72;;;12.95;;
77571;SDS011;67214;47.454;18.966;2023-10-13T01:21:17;17.37;;;12.18;;
77571;SDS011;67214;47.454;18.966;2023-10-13T01:23:46;19.45;;;11.88;;
77571;SDS011;67214;47.454;18.966;2023-10-13T01:26:15;19.75;;;12.43;;
77571;SDS011;67214;47.454;18.966;2023-10-13T01:28:45;20.17;;;12.85;;
77571;SDS011;67214;47.454;18.966;2023-10-13T01:31:13;21.05;;;12.35;;
77571;SDS011;67214;47.454;18.966;2023-10-13T01:33:42;20.62;;;12.30;;
77571;SDS011;67214;47.454;18.966;2023-10-13T01:36:09;18.85;;;12.47;;
77571;SDS011;67214;47.454;18.966;2023-10-13T01:38:37;18.05;;;11.08;;
77571;SDS011;67214;47.454;18.966;2023-10-13T01:41:06;19.07;;;11.20;;
77571;SDS011;67214;47.454;18.966;2023-10-13T01:43:34;15.43;;;11.28;;
77571;SDS011;67214;47.454;18.966;2023-10-13T01:46:02;20.37;;;11.35;;
77571;SDS011;67214;47.454;18.966;2023-10-13T01:48:29;17.35;;;10.23;;
77571;SDS011;67214;47.454;18.966;2023-10-13T01:51:02;17.90;;;11.00;;
77571;SDS011;67214;47.454;18.966;2023-10-13T01:53:31;15.45;;;11.22;;
77571;SDS011;67214;47.454;18.966;2023-10-13T01:55:58;18.00;;;11.45;;
77571;SDS011;67214;47.454;18.966;2023-10-13T01:58:27;17.00;;;10.90;;
77571;SDS011;67214;47.454;18.966;2023-10-13T02:00:55;16.35;;;10.63;;
77571;SDS011;67214;47.454;18.966;2023-10-13T02:03:22;15.28;;;10.82;;
77571;SDS011;67214;47.454;18.966;2023-10-13T02:05:49;17.73;;;11.38;;
77571;SDS011;67214;47.454;18.966;2023-10-13T02:08:20;16.82;;;11.15;;
77571;SDS011;67214;47.454;18.966;2023-10-13T02:10:49;16.12;;;12.35;;
77571;SDS011;67214;47.454;18.966;2023-10-13T02:13:17;15.38;;;11.55;;
77571;SDS011;67214;47.454;18.966;2023-10-13T02:15:47;22.07;;;11.40;;
77571;SDS011;67214;47.454;18.966;2023-10-13T02:18:21;18.35;;;10.95;;
77571;SDS011;67214;47.454;18.966;2023-10-13T02:20:56;21.42;;;12.00;;
77571;SDS011;67214;47.454;18.966;2023-10-13T02:23:27;18.37;;;11.33;;
77571;SDS011;67214;47.454;18.966;2023-10-13T02:25:55;16.77;;;11.28;;
77571;SDS011;67214;47.454;18.966;2023-10-13T02:28:28;21.70;;;11.70;;
77571;SDS011;67214;47.454;18.966;2023-10-13T02:30:57;16.87;;;11.25;;
77571;SDS011;67214;47.454;18.966;2023-10-13T02:33:30;14.03;;;11.10;;
77571;SDS011;67214;47.454;18.966;2023-10-13T02:35:59;18.10;;;11.68;;
77571;SDS011;67214;47.454;18.966;2023-10-13T02:38:29;19.23;;;12.50;;
77571;SDS011;67214;47.454;18.966;2023-10-13T02:41:01;19.15;;;11.18;;
77571;SDS011;67214;47.454;18.966;2023-10-13T02:43:35;16.73;;;10.93;;
77571;SDS011;67214;47.454;18.966;2023-10-13T02:46:03;15.28;;;11.15;;
77571;SDS011;67214;47.454;18.966;2023-10-13T02:48:31;15.10;;;10.98;;
77571;SDS011;67214;47.454;18.966;2023-10-13T02:51:08;14.75;;;11.05;;
77571;SDS011;67214;47.454;18.966;2023-10-13T02:53:47;17.52;;;11.40;;
77571;SDS011;67214;47.454;18.966;2023-10-13T02:56:16;18.62;;;11.00;;
77571;SDS011;67214;47.454;18.966;2023-10-13T02:59:02;17.40;;;10.68;;
77571;SDS011;67214;47.454;18.966;2023-10-13T03:01:34;19.25;;;11.33;;
77571;SDS011;67214;47.454;18.966;2023-10-13T03:04:02;17.27;;;10.93;;
77571;SDS011;67214;47.454;18.966;2023-10-13T03:06:32;17.20;;;11.45;;
77571;SDS011;67214;47.454;18.966;2023-10-13T03:09:01;15.95;;;10.78;;
77571;SDS011;67214;47.454;18.966;2023-10-13T03:11:48;18.98;;;11.20;;
77571;SDS011;67214;47.454;18.966;2023-10-13T03:14:15;18.42;;;10.43;;
77571;SDS011;67214;47.454;18.966;2023-10-13T03:19:23;21.87;;;10.38;;
77571;SDS011;67214;47.454;18.966;2023-10-13T03:21:52;20.50;;;10.58;;
77571;SDS011;67214;47.454;18.966;2023-10-13T03:24:24;16.85;;;9.93;;
77571;SDS011;67214;47.454;18.966;2023-10-13T03:27:00;15.75;;;10.43;;
77571;SDS011;67214;47.454;18.966;2023-10-13T03:29:32;16.82;;;10.65;;
77571;SDS011;67214;47.454;18.966;2023-10-13T03:32:03;19.30;;;11.03;;
77571;SDS011;67214;47.454;18.966;2023-10-13T03:34:35;15.72;;;10.28;;
77571;SDS011;67214;47.454;18.966;2023-10-13T03:37:04;15.63;;;11.05;;
77571;SDS011;67214;47.454;18.966;2023-10-13T03:39:33;16.75;;;10.82;;
77571;SDS011;67214;47.454;18.966;2023-10-13T03:42:01;19.00;;;10.72;;
77571;SDS011;67214;47.454;18.966;2023-10-13T03:44:30;16.05;;;11.08;;
77571;SDS011;67214;47.454;18.966;2023-10-13T03:46:58;18.92;;;12.82;;
77571;SDS011;67214;47.454;18.966;2023-10-13T03:49:27;16.85;;;11.80;;
77571;SDS011;67214;47.454;18.966;2023-10-13T03:51:56;19.62;;;12.50;;
77571;SDS011;67214;47.454;18.966;2023-10-13T03:54:23;18.75;;;12.28;;
77571;SDS011;67214;47.454;18.966;2023-10-13T03:56:53;21.93;;;12.60;;
77571;SDS011;67214;47.454;18.966;2023-10-13T03:59:21;18.17;;;12.30;;
77571;SDS011;67214;47.454;18.966;2023-10-13T04:01:50;21.50;;;14.63;;
77571;SDS011;67214;47.454;18.966;2023-10-13T04:04:19;23.10;;;16.12;;
77571;SDS011;67214;47.454;18.966;2023-10-13T04:07:04;18.62;;;13.25;;
77571;SDS011;67214;47.454;18.966;2023-10-13T04:09:37;22.02;;;13.98;;
77571;SDS011;67214;47.454;18.966;2023-10-13T04:12:15;20.05;;;13.85;;
77571;SDS011;67214;47.454;18.966;2023-10-13T04:14:54;23.30;;;14.15;;
77571;SDS011;67214;47.454;18.966;2023-10-13T04:17:25;19.17;;;14.20;;
77571;SDS011;67214;47.454;18.966;2023-10-13T04:19:56;23.52;;;14.50;;
77571;SDS011;67214;47.454;18.966;2023-10-13T04:22:26;17.60;;;13.40;;
77571;SDS011;67214;47.454;18.966;2023-10-13T04:25:17;21.45;;;14.85;;
77571;SDS011;67214;47.454;18.966;2023-10-13T04:28:09;16.73;;;12.18;;
77571;SDS011;67214;47.454;18.966;2023-10-13T04:30:45;20.97;;;13.53;;
77571;SDS011;67214;47.454;18.966;2023-10-13T04:33:20;18.07;;;13.38;;
77571;SDS011;67214;47.454;18.966;2023-10-13T04:36:10;21.68;;;14.00;;
77571;SDS011;67214;47.454;18.966;2023-10-13T04:38:58;23.38;;;13.43;;
77571;SDS011;67214;47.454;18.966;2023-10-13T04:41:33;17.20;;;13.58;;
77571;SDS011;67214;47.454;18.966;2023-10-13T04:44:09;22.15;;;12.63;;
77571;SDS011;67214;47.454;18.966;2023-10-13T04:46:58;20.52;;;12.95;;
77571;SDS011;67214;47.454;18.966;2023-10-13T04:49:29;20.37;;;14.50;;
77571;SDS011;67214;47.454;18.966;2023-10-13T04:52:03;19.60;;;12.13;;
77571;SDS011;67214;47.454;18.966;2023-10-13T04:54:36;21.27;;;13.03;;
77571;SDS011;67214;47.454;18.966;2023-10-13T04:57:17;17.45;;;13.08;;
77571;SDS011;67214;47.454;18.966;2023-10-13T04:59:53;20.70;;;13.70;;
77571;SDS011;67214;47.454;18.966;2023-10-13T05:02:32;17.73;;;13.65;;
77571;SDS011;67214;47.454;18.966;2023-10-13T05:05:07;19.67;;;12.70;;
77571;SDS011;67214;47.454;18.966;2023-10-13T05:07:41;19.65;;;13.55;;
77571;SDS011;67214;47.454;18.966;2023-10-13T05:10:27;17.77;;;11.73;;
77571;SDS011;67214;47.454;18.966;2023-10-13T05:13:13;21.00;;;12.98;;
77571;SDS011;67214;47.454;18.966;2023-10-13T05:18:44;20.80;;;12.68;;
77571;SDS011;67214;47.454;18.966;2023-10-13T05:21:29;21.33;;;13.60;;
77571;SDS011;67214;47.454;18.966;2023-10-13T05:24:15;19.35;;;13.35;;
77571;SDS011;67214;47.454;18.966;2023-10-13T05:27:00;21.45;;;13.65;;
77571;SDS011;67214;47.454;18.966;2023-10-13T05:29:46;23.30;;;13.78;;
77571;SDS011;67214;47.454;18.966;2023-10-13T05:32:32;20.48;;;13.50;;
77571;SDS011;67214;47.454;18.966;2023-10-13T05:40:56;20.72;;;14.40;;
77571;SDS011;67214;47.454;18.966;2023-10-13T05:43:42;19.02;;;14.33;;
77571;SDS011;67214;47.454;18.966;2023-10-13T05:46:28;20.75;;;14.95;;
77571;SDS011;67214;47.454;18.966;2023-10-13T05:49:07;20.75;;;14.90;;
77571;SDS011;67214;47.454;18.966;2023-10-13T05:51:37;24.63;;;14.53;;
77571;SDS011;67214;47.454;18.966;2023-10-13T05:54:09;20.25;;;14.05;;
77571;SDS011;67214;47.454;18.966;2023-10-13T05:56:42;19.73;;;14.55;;
77571;SDS011;67214;47.454;18.966;2023-10-13T05:59:28;19.73;;;14.60;;
77571;SDS011;67214;47.454;18.966;2023-10-13T06:02:15;25.82;;;15.35;;
77571;SDS011;67214;47.454;18.966;2023-10-13T06:05:02;22.40;;;14.30;;
77571;SDS011;67214;47.454;18.966;2023-10-13T06:07:48;23.60;;;14.45;;
77571;SDS011;67214;47.454;18.966;2023-10-13T06:10:33;21.93;;;14.95;;
77571;SDS011;67214;47.454;18.966;2023-10-13T06:16:07;21.33;;;14.13;;
77571;SDS011;67214;47.454;18.966;2023-10-13T06:18:53;18.55;;;12.23;;
77571;SDS011;67214;47.454;18.966;2023-10-13T06:24:24;20.15;;;12.82;;
77571;SDS011;67214;47.454;18.966;2023-10-13T06:27:09;22.95;;;13.72;;
77571;SDS011;67214;47.454;18.966;2023-10-13T06:29:55;26.20;;;13.88;;
77571;SDS011;67214;47.454;18.966;2023-10-13T06:32:23;19.30;;;12.55;;
77571;SDS011;67214;47.454;18.966;2023-10-13T06:34:53;20.72;;;12.37;;
77571;SDS011;67214;47.454;18.966;2023-10-13T06:37:24;18.67;;;11.35;;
77571;SDS011;67214;47.454;18.966;2023-10-13T06:39:53;20.65;;;12.10;;
77571;SDS011;67214;47.454;18.966;2023-10-13T06:42:26;18.62;;;11.90;;
77571;SDS011;67214;47.454;18.966;2023-10-13T06:44:54;23.75;;;12.43;;
77571;SDS011;67214;47.454;18.966;2023-10-13T06:47:23;20.55;;;12.15;;
77571;SDS011;67214;47.454;18.966;2023-10-13T06:49:53;20.92;;;12.68;;
77571;SDS011;67214;47.454;18.966;2023-10-13T06:52:22;18.60;;;13.38;;
77571;SDS011;67214;47.454;18.966;2023-10-13T06:54:56;24.80;;;12.78;;
77571;SDS011;67214;47.454;18.966;2023-10-13T06:57:21;21.82;;;13.68;;
77571;SDS011;67214;47.454;18.966;2023-10-13T06:59:48;19.15;;;12.58;;
77571;SDS011;67214;47.454;18.966;2023-10-13T07:02:18;21.15;;;12.82;;
77571;SDS011;67214;47.454;18.966;2023-10-13T07:04:48;22.13;;;12.70;;
77571;SDS011;67214;47.454;18.966;2023-10-13T07:07:26;19.75;;;12.82;;
77571;SDS011;67214;47.454;18.966;2023-10-13T07:09:54;21.55;;;13.20;;
77571;SDS011;67214;47.454;18.966;2023-10-13T07:12:23;23.62;;;13.60;;
77571;SDS011;67214;47.454;18.966;2023-10-13T07:14:55;19.02;;;12.90;;
77571;SDS011;67214;47.454;18.966;2023-10-13T07:17:27;24.07;;;13.98;;
77571;SDS011;67214;47.454;18.966;2023-10-13T07:19:56;22.48;;;14.50;;
77571;SDS011;67214;47.454;18.966;2023-10-13T07:22:25;19.35;;;13.78;;
77571;SDS011;67214;47.454;18.966;2023-10-13T07:24:53;20.97;;;13.32;;
77571;SDS011;67214;47.454;18.966;2023-10-13T07:27:22;21.00;;;13.25;;
77571;SDS011;67214;47.454;18.966;2023-10-13T07:29:51;17.32;;;12.50;;
77571;SDS011;67214;47.454;18.966;2023-10-13T07:32:23;22.05;;;14.38;;
77571;SDS011;67214;47.454;18.966;2023-10-13T07:34:55;22.55;;;14.63;;
77571;SDS011;67214;47.454;18.966;2023-10-13T07:37:23;22.17;;;13.40;;
77571;SDS011;67214;47.454;18.966;2023-10-13T07:39:52;24.40;;;13.18;;
77571;SDS011;67214;47.454;18.966;2023-10-13T07:42:21;20.45;;;13.10;;
77571;SDS011;67214;47.454;18.966;2023-10-13T07:44:49;21.75;;;14.28;;
77571;SDS011;67214;47.454;18.966;2023-10-13T07:47:18;17.82;;;12.28;;
77571;SDS011;67214;47.454;18.966;2023-10-13T07:49:45;21.50;;;12.93;;
77571;SDS011;67214;47.454;18.966;2023-10-13T07:52:15;23.12;;;13.08;;
77571;SDS011;67214;47.454;18.966;2023-10-13T07:54:50;21.23;;;13.48;;
77571;SDS011;67214;47.454;18.966;2023-10-13T07:57:35;21.57;;;13.72;;
77571;SDS011;67214;47.454;18.966;2023-10-13T08:00:05;25.12;;;13.93;;
77571;SDS011;67214;47.454;18.966;2023-10-13T08:02:40;20.25;;;12.73;;
77571;SDS011;67214;47.454;18.966;2023-10-13T08:05:17;20.08;;;11.70;;
77571;SDS011;67214;47.454;18.966;2023-10-13T08:07:52;19.52;;;12.45;;
77571;SDS011;67214;47.454;18.966;2023-10-13T08:10:22;23.50;;;12.30;;
77571;SDS011;67214;47.454;18.966;2023-10-13T08:12:51;25.92;;;13.53;;
77571;SDS011;67214;47.454;18.966;2023-10-13T08:15:20;19.67;;;12.53;;
77571;SDS011;67214;47.454;18.966;2023-10-13T08:17:49;21.87;;;12.28;;
77571;SDS011;67214;47.454;18.966;2023-10-13T08:20:17;21.05;;;12.10;;
77571;SDS011;67214;47.454;18.966;2023-10-13T08:22:46;20.90;;;12.33;;
77571;SDS011;67214;47.454;18.966;2023-10-13T08:25:14;21.10;;;12.25;;
77571;SDS011;67214;47.454;18.966;2023-10-13T08:27:50;19.98;;;13.05;;
77571;SDS011;67214;47.454;18.966;2023-10-13T08:30:34;24.47;;;12.20;;
77571;SDS011;67214;47.454;18.966;2023-10-13T08:33:03;22.35;;;12.70;;
77571;SDS011;67214;47.454;18.966;2023-10-13T08:35:32;19.42;;;12.05;;
77571;SDS011;67214;47.454;18.966;2023-10-13T08:38:00;16.25;;;12.25;;
77571;SDS011;67214;47.454;18.966;2023-10-13T08:40:33;19.20;;;11.97;;
77571;SDS011;67214;47.454;18.966;2023-10-13T08:43:19;22.48;;;12.40;;
77571;SDS011;67214;47.454;18.966;2023-10-13T08:45:48;18.02;;;12.70;;
77571;SDS011;67214;47.454;18.966;2023-10-13T08:48:19;27.40;;;14.25;;
77571;SDS011;67214;47.454;18.966;2023-10-13T08:50:50;21.95;;;14.20;;
77571;SDS011;67214;47.454;18.966;2023-10-13T08:53:19;23.70;;;14.53;;
77571;SDS011;67214;47.454;18.966;2023-10-13T08:55:58;26.23;;;14.98;;
77571;SDS011;67214;47.454;18.966;2023-10-13T08:58:41;28.00;;;15.08;;
77571;SDS011;67214;47.454;18.966;2023-10-13T09:01:24;25.02;;;16.42;;
77571;SDS011;67214;47.454;18.966;2023-10-13T09:04:04;24.35;;;14.70;;
77571;SDS011;67214;47.454;18.966;2023-10-13T09:06:59;26.57;;;16.27;;
77571;SDS011;67214;47.454;18.966;2023-10-13T09:12:23;21.15;;;16.42;;
77571;SDS011;67214;47.454;18.966;2023-10-13T09:14:54;32.40;;;18.82;;
77571;SDS011;67214;47.454;18.966;2023-10-13T09:17:27;25.02;;;16.55;;
77571;SDS011;67214;47.454;18.966;2023-10-13T09:22:52;20.15;;;15.72;;
77571;SDS011;67214;47.454;18.966;2023-10-13T09:25:32;24.07;;;16.73;;
77571;SDS011;67214;47.454;18.966;2023-10-13T09:28:13;33.00;;;19.17;;
77571;SDS011;67214;47.454;18.966;2023-10-13T09:30:47;29.80;;;17.45;;
77571;SDS011;67214;47.454;18.966;2023-10-13T09:33:20;29.47;;;17.43;;
77571;SDS011;67214;47.454;18.966;2023-10-13T09:35:57;29.52;;;18.20;;
77571;SDS011;67214;47.454;18.966;2023-10-13T09:38:32;31.77;;;17.20;;
77571;SDS011;67214;47.454;18.966;2023-10-13T09:40:56;31.48;;;17.75;;
77571;SDS011;67214;47.454;18.966;2023-10-13T09:43:27;27.62;;;18.32;;
77571;SDS011;67214;47.454;18.966;2023-10-13T09:45:58;26.20;;;17.75;;
77571;SDS011;67214;47.454;18.966;2023-10-13T09:51:01;29.85;;;16.87;;
77571;SDS011;67214;47.454;18.966;2023-10-13T09:53:31;27.22;;;17.35;;
77571;SDS011;67214;47.454;18.966;2023-10-13T09:56:02;32.48;;;19.90;;
77571;SDS011;67214;47.454;18.966;2023-10-13T09:58:42;30.02;;;17.57;;
77571;SDS011;67214;47.454;18.966;2023-10-13T10:01:17;32.23;;;18.55;;
77571;SDS011;67214;47.454;18.966;2023-10-13T10:03:47;26.65;;;17.75;;
77571;SDS011;67214;47.454;18.966;2023-10-13T10:06:22;28.25;;;16.52;;
77571;SDS011;67214;47.454;18.966;2023-10-13T10:09:07;29.15;;;17.62;;
77571;SDS011;67214;47.454;18.966;2023-10-13T10:11:48;27.85;;;16.35;;
77571;SDS011;67214;47.454;18.966;2023-10-13T10:17:17;30.45;;;16.80;;
77571;SDS011;67214;47.454;18.966;2023-10-13T10:19:50;24.47;;;15.93;;
77571;SDS011;67214;47.454;18.966;2023-10-13T10:22:30;39.13;;;17.00;;
77571;SDS011;67214;47.454;18.966;2023-10-13T10:25:05;31.85;;;16.73;;
77571;SDS011;67214;47.454;18.966;2023-10-13T10:27:35;27.27;;;15.55;;
77571;SDS011;67214;47.454;18.966;2023-10-13T10:30:02;25.50;;;16.23;;
77571;SDS011;67214;47.454;18.966;2023-10-13T10:32:34;26.30;;;16.55;;
77571;SDS011;67214;47.454;18.966;2023-10-13T10:35:04;29.77;;;16.32;;
77571;SDS011;67214;47.454;18.966;2023-10-13T10:37:33;29.12;;;16.25;;
77571;SDS011;67214;47.454;18.966;2023-10-13T10:40:06;28.87;;;16.55;;
77571;SDS011;67214;47.454;18.966;2023-10-13T10:42:36;27.07;;;15.65;;
77571;SDS011;67214;47.454;18.966;2023-10-13T10:45:08;33.80;;;17.92;;
77571;SDS011;67214;47.454;18.966;2023-10-13T10:47:38;29.15;;;16.57;;
77571;SDS011;67214;47.454;18.966;2023-10-13T10:50:08;27.27;;;14.95;;
77571;SDS011;67214;47.454;18.966;2023-10-13T10:52:37;23.47;;;14.40;;
77571;SDS011;67214;47.454;18.966;2023-10-13T10:55:06;29.25;;;15.63;;
77571;SDS011;67214;47.454;18.966;2023-10-13T10:57:35;25.95;;;15.18;;
77571;SDS011;67214;47.454;18.966;2023-10-13T11:00:07;28.55;;;14.63;;
77571;SDS011;67214;47.454;18.966;2023-10-13T11:02:58;23.52;;;14.73;;
77571;SDS011;67214;47.454;18.966;2023-10-13T11:05:27;20.72;;;14.68;;
77571;SDS011;67214;47.454;18.966;2023-10-13T11:07:53;32.08;;;15.98;;
77571;SDS011;67214;47.454;18.966;2023-10-13T11:10:21;24.05;;;15.70;;
77571;SDS011;67214;47.454;18.966;2023-10-13T11:12:56;22.90;;;15.25;;
77571;SDS011;67214;47.454;18.966;2023-10-13T11:18:09;23.35;;;14.23;;
77571;SDS011;67214;47.454;18.966;2023-10-13T11:20:41;27.22;;;14.75;;
77571;SDS011;67214;47.454;18.966;2023-10-13T11:23:13;23.20;;;15.18;;
77571;SDS011;67214;47.454;18.966;2023-10-13T11:25:41;21.57;;;14.65;;
77571;SDS011;67214;47.454;18.966;2023-10-13T11:28:14;23.98;;;14.05;;
77571;SDS011;67214;47.454;18.966;2023-10-13T11:30:44;22.42;;;13.88;;
77571;SDS011;67214;47.454;18.966;2023-10-13T11:33:16;22.25;;;13.00;;
77571;SDS011;67214;47.454;18.966;2023-10-13T11:35:47;21.90;;;12.43;;
77571;SDS011;67214;47.454;18.966;2023-10-13T11:38:17;17.90;;;12.25;;
77571;SDS011;67214;47.454;18.966;2023-10-13T11:43:34;20.68;;;12.30;;
77571;SDS011;67214;47.454;18.966;2023-10-13T11:46:10;16.73;;;12.18;;
77571;SDS011;67214;47.454;18.966;2023-10-13T11:48:39;19.48;;;13.03;;
77571;SDS011;67214;47.454;18.966;2023-10-13T11:51:14;25.57;;;13.48;;
77571;SDS011;67214;47.454;18.966;2023-10-13T11:53:56;26.20;;;14.33;;
77571;SDS011;67214;47.454;18.966;2023-10-13T11:56:24;17.95;;;13.22;;
77571;SDS011;67214;47.454;18.966;2023-10-13T11:58:51;21.95;;;12.88;;
77571;SDS011;67214;47.454;18.966;2023-10-13T12:01:19;24.72;;;13.45;;
77571;SDS011;67214;47.454;18.966;2023-10-13T12:03:47;25.88;;;12.78;;
77571;SDS011;67214;47.454;18.966;2023-10-13T12:06:34;24.45;;;12.75;;
77571;SDS011;67214;47.454;18.966;2023-10-13T12:09:08;18.07;;;11.40;;
77571;SDS011;67214;47.454;18.966;2023-10-13T12:11:48;16.75;;;11.28;;
77571;SDS011;67214;47.454;18.966;2023-10-13T12:14:20;14.38;;;10.53;;
77571;SDS011;67214;47.454;18.966;2023-10-13T12:16:49;16.42;;;9.83;;
77571;SDS011;67214;47.454;18.966;2023-10-13T12:19:20;16.15;;;10.70;;
77571;SDS011;67214;47.454;18.966;2023-10-13T12:21:55;19.65;;;9.25;;
77571;SDS011;67214;47.454;18.966;2023-10-13T12:24:28;15.80;;;9.85;;
77571;SDS011;67214;47.454;18.966;2023-10-13T12:27:04;21.15;;;10.25;;
77571;SDS011;67214;47.454;18.966;2023-10-13T12:29:45;19.10;;;9.63;;
77571;SDS011;67214;47.454;18.966;2023-10-13T12:32:13;17.60;;;9.15;;
77571;SDS011;67214;47.454;18.966;2023-10-13T12:34:43;21.37;;;8.65;;
77571;SDS011;67214;47.454;18.966;2023-10-13T12:37:30;15.50;;;7.67;;
77571;SDS011;67214;47.454;18.966;2023-10-13T12:40:10;14.30;;;7.83;;
77571;SDS011;67214;47.454;18.966;2023-10-13T12:43:00;14.98;;;7.90;;
77571;SDS011;67214;47.454;18.966;2023-10-13T12:45:47;16.37;;;8.15;;
77571;SDS011;67214;47.454;18.966;2023-10-13T12:48:34;15.90;;;7.33;;
77571;SDS011;67214;47.454;18.966;2023-10-13T12:51:23;16.60;;;8.38;;
77571;SDS011;67214;47.454;18.966;2023-10-13T12:54:01;12.80;;;6.85;;
77571;SDS011;67214;47.454;18.966;2023-10-13T12:56:33;18.73;;;7.12;;
77571;SDS011;67214;47.454;18.966;2023-10-13T12:59:02;17.73;;;6.55;;
77571;SDS011;67214;47.454;18.966;2023-10-13T13:01:31;12.00;;;6.42;;
77571;SDS011;67214;47.454;18.966;2023-10-13T13:03:59;13.38;;;8.38;;
77571;SDS011;67214;47.454;18.966;2023-10-13T13:06:29;22.85;;;8.73;;
77571;SDS011;67214;47.454;18.966;2023-10-13T13:08:56;18.37;;;9.25;;
77571;SDS011;67214;47.454;18.966;2023-10-13T13:11:26;15.35;;;9.20;;
77571;SDS011;67214;47.454;18.966;2023-10-13T13:13:56;17.00;;;8.68;;
77571;SDS011;67214;47.454;18.966;2023-10-13T13:16:23;16.17;;;7.55;;
77571;SDS011;67214;47.454;18.966;2023-10-13T13:18:52;12.43;;;6.17;;
77571;SDS011;67214;47.454;18.966;2023-10-13T13:21:20;12.93;;;6.65;;
77571;SDS011;67214;47.454;18.966;2023-10-13T13:23:49;15.00;;;7.10;;
77571;SDS011;67214;47.454;18.966;2023-10-13T13:26:19;14.10;;;6.60;;
77571;SDS011;67214;47.454;18.966;2023-10-13T13:28:48;13.70;;;6.65;;
77571;SDS011;67214;47.454;18.966;2023-10-13T13:31:21;11.03;;;6.37;;
77571;SDS011;67214;47.454;18.966;2023-10-13T13:33:55;9.70;;;6.17;;
77571;SDS011;67214;47.454;18.966;2023-10-13T13:36:22;12.28;;;6.15;;
77571;SDS011;67214;47.454;18.966;2023-10-13T13:38:50;17.92;;;6.45;;
77571;SDS011;67214;47.454;18.966;2023-10-13T13:41:19;17.52;;;7.10;;
77571;SDS011;67214;47.454;18.966;2023-10-13T13:43:47;16.20;;;6.33;;
77571;SDS011;67214;47.454;18.966;2023-10-13T13:46:17;12.25;;;6.75;;
77571;SDS011;67214;47.454;18.966;2023-10-13T13:48:48;14.05;;;6.45;;
77571;SDS011;67214;47.454;18.966;2023-10-13T13:51:17;10.75;;;6.20;;
77571;SDS011;67214;47.454;18.966;2023-10-13T13:53:46;9.55;;;6.50;;
77571;SDS011;67214;47.454;18.966;2023-10-13T13:56:16;11.38;;;6.00;;
77571;SDS011;67214;47.454;18.966;2023-10-13T13:58:49;12.58;;;6.45;;
77571;SDS011;67214;47.454;18.966;2023-10-13T14:01:16;11.38;;;6.05;;
77571;SDS011;67214;47.454;18.966;2023-10-13T14:03:45;12.53;;;6.42;;
77571;SDS011;67214;47.454;18.966;2023-10-13T14:06:22;11.40;;;6.08;;
77571;SDS011;67214;47.454;18.966;2023-10-13T14:08:53;12.37;;;6.55;;
77571;SDS011;67214;47.454;18.966;2023-10-13T14:11:30;11.73;;;6.17;;
77571;SDS011;67214;47.454;18.966;2023-10-13T14:16:53;10.30;;;5.25;;
77571;SDS011;67214;47.454;18.966;2023-10-13T14:19:34;13.38;;;6.42;;
77571;SDS011;67214;47.454;18.966;2023-10-13T14:22:03;13.83;;;5.95;;
77571;SDS011;67214;47.454;18.966;2023-10-13T14:24:35;8.65;;;5.87;;
77571;SDS011;67214;47.454;18.966;2023-10-13T14:27:04;11.30;;;5.95;;
77571;SDS011;67214;47.454;18.966;2023-10-13T14:29:36;9.68;;;5.72;;
77571;SDS011;67214;47.454;18.966;2023-10-13T14:32:07;9.18;;;5.22;;
77571;SDS011;67214;47.454;18.966;2023-10-13T14:34:42;13.80;;;5.55;;
77571;SDS011;67214;47.454;18.966;2023-10-13T14:37:11;12.07;;;5.65;;
77571;SDS011;67214;47.454;18.966;2023-10-13T14:39:39;13.85;;;6.60;;
77571;SDS011;67214;47.454;18.966;2023-10-13T14:42:06;9.15;;;5.62;;
77571;SDS011;67214;47.454;18.966;2023-10-13T14:44:34;15.72;;;6.05;;
77571;SDS011;67214;47.454;18.966;2023-10-13T14:47:02;11.00;;;5.33;;
77571;SDS011;67214;47.454;18.966;2023-10-13T14:49:34;15.60;;;6.42;;
77571;SDS011;67214;47.454;18.966;2023-10-13T14:52:01;15.25;;;6.20;;
77571;SDS011;67214;47.454;18.966;2023-10-13T14:54:29;14.70;;;5.03;;
77571;SDS011;67214;47.454;18.966;2023-10-13T14:57:00;8.25;;;5.40;;
77571;SDS011;67214;47.454;18.966;2023-10-13T14:59:28;12.47;;;5.75;;
77571;SDS011;67214;47.454;18.966;2023-10-13T15:01:59;12.35;;;5.90;;
77571;SDS011;67214;47.454;18.966;2023-10-13T15:04:28;12.85;;;6.45;;
77571;SDS011;67214;47.454;18.966;2023-10-13T15:07:03;12.33;;;6.35;;
77571;SDS011;67214;47.454;18.966;2023-10-13T15:09:28;13.62;;;6.40;;
77571;SDS011;67214;47.454;18.966;2023-10-13T15:11:56;12.58;;;5.80;;
77571;SDS011;67214;47.454;18.966;2023-10-13T15:14:23;15.58;;;5.97;;
77571;SDS011;67214;47.454;18.966;2023-10-13T15:16:51;13.80;;;5.65;;
77571;SDS011;67214;47.454;18.966;2023-10-13T15:19:18;11.50;;;6.03;;